createdAt,value
2018-05-16T00:00:47.588Z,24.10
2018-05-16T00:03:13.580Z,22.00
2018-05-16T00:05:39.527Z,22.60
2018-05-16T00:08:05.472Z,23.77
2018-05-16T00:10:31.359Z,22.93
2018-05-16T00:12:57.573Z,21.20
2018-05-16T00:15:23.594Z,25.23
2018-05-16T00:17:49.468Z,27.10
2018-05-16T00:20:15.380Z,24.83
2018-05-16T00:22:41.235Z,27.70
2018-05-16T00:25:07.100Z,25.57
2018-05-16T00:27:33.194Z,24.53
2018-05-16T00:29:59.057Z,24.83
2018-05-16T00:32:24.929Z,24.07
2018-05-16T00:34:50.831Z,20.07
2018-05-16T00:37:16.719Z,22.53
2018-05-16T00:39:42.724Z,23.73
2018-05-16T00:42:08.631Z,20.57
2018-05-16T00:44:34.487Z,23.00
2018-05-16T00:47:00.362Z,21.47
2018-05-16T00:49:26.280Z,24.50
2018-05-16T00:51:52.304Z,23.57
2018-05-16T00:54:18.183Z,20.70
2018-05-16T00:56:44.092Z,26.17
2018-05-16T00:59:09.949Z,24.17
2018-05-16T01:01:35.814Z,23.23
2018-05-16T01:04:01.828Z,20.70
2018-05-16T01:06:27.700Z,20.33
2018-05-16T01:08:53.580Z,22.67
2018-05-16T01:11:19.673Z,24.37
2018-05-16T01:13:45.562Z,24.33
2018-05-16T01:16:11.573Z,21.27
2018-05-16T01:18:37.583Z,23.73
2018-05-16T01:21:03.452Z,25.97
2018-05-16T01:23:29.330Z,23.53
2018-05-16T01:25:55.250Z,24.73
2018-05-16T01:28:21.296Z,26.90
2018-05-16T01:30:47.163Z,23.80
2018-05-16T01:33:13.443Z,23.33
2018-05-16T01:35:39.319Z,24.93
2018-05-16T01:38:05.192Z,23.53
2018-05-16T01:40:31.260Z,27.53
2018-05-16T01:42:57.128Z,26.70
2018-05-16T01:45:23.027Z,28.27
2018-05-16T01:47:48.938Z,31.17
2018-05-16T01:50:14.807Z,26.87
2018-05-16T01:52:40.839Z,26.50
2018-05-16T01:55:06.763Z,29.77
2018-05-16T01:57:32.658Z,31.03
2018-05-16T01:59:58.544Z,24.60
2018-05-16T02:02:24.464Z,31.10
2018-05-16T02:04:50.476Z,25.90
2018-05-16T02:07:16.344Z,28.33
2018-05-16T02:09:42.260Z,24.60
2018-05-16T02:12:08.143Z,27.37
2018-05-16T02:14:34.064Z,30.47
2018-05-16T02:17:00.127Z,37.43
2018-05-16T02:19:26.004Z,33.27
2018-05-16T02:21:51.878Z,32.40
2018-05-16T02:24:17.795Z,29.27
2018-05-16T02:26:43.676Z,26.67
2018-05-16T02:29:09.699Z,32.10
2018-05-16T02:31:35.615Z,28.90
2018-05-16T02:34:01.492Z,28.33
2018-05-16T02:36:27.361Z,25.57
2018-05-16T02:38:53.320Z,31.80
2018-05-16T02:41:19.382Z,46.67
2018-05-16T02:43:45.256Z,41.50
2018-05-16T02:46:12.906Z,39.33
2018-05-16T02:48:39.497Z,76.10
2018-05-16T02:51:05.367Z,62.80
2018-05-16T02:53:31.440Z,74.67
2018-05-16T02:55:57.383Z,105.67
2018-05-16T02:58:23.268Z,110.83
2018-05-16T03:00:49.174Z,148.67
2018-05-16T03:03:15.096Z,129.03
2018-05-16T03:05:41.059Z,128.53
2018-05-16T03:08:06.963Z,154.83
2018-05-16T03:10:32.843Z,147.43
2018-05-16T03:12:58.736Z,139.57
2018-05-16T03:15:25.082Z,185.53
2018-05-16T03:17:51.239Z,185.73
2018-05-16T03:20:17.112Z,172.57
2018-05-16T03:22:43.096Z,153.93
2018-05-16T03:25:08.997Z,145.37
2018-05-16T03:27:34.851Z,124.90
2018-05-16T03:30:00.815Z,131.43
2018-05-16T03:32:26.827Z,122.10
2018-05-16T03:34:52.749Z,118.40
2018-05-16T03:37:18.679Z,104.70
2018-05-16T03:39:44.547Z,126.60
2018-05-16T03:42:10.405Z,121.93
2018-05-16T03:44:36.331Z,117.77
2018-05-16T03:47:02.227Z,116.33
2018-05-16T03:49:28.097Z,121.37
2018-05-16T03:51:54.076Z,108.10
2018-05-16T03:54:19.904Z,107.53
2018-05-16T03:56:45.775Z,104.63
2018-05-16T03:59:24.862Z,104.07
2018-05-16T04:02:02.984Z,97.97
2018-05-16T04:04:28.918Z,93.03
2018-05-16T04:06:54.793Z,90.40
2018-05-16T04:09:21.552Z,88.37
2018-05-16T04:11:47.479Z,89.20
2018-05-16T04:14:13.372Z,81.00
2018-05-16T04:16:39.239Z,91.53
2018-05-16T04:19:05.163Z,81.30
2018-05-16T04:21:31.138Z,80.50
2018-05-16T04:23:57.009Z,74.77
2018-05-16T04:26:22.936Z,73.40
2018-05-16T04:28:48.841Z,75.27
2018-05-16T04:31:14.708Z,74.10
2018-05-16T04:33:40.761Z,71.83
2018-05-16T04:36:06.640Z,70.00
2018-05-16T04:38:32.527Z,64.80
2018-05-16T04:40:58.455Z,64.63
2018-05-16T04:43:24.330Z,66.20
2018-05-16T04:45:50.275Z,66.23
2018-05-16T04:48:16.208Z,65.90
2018-05-16T04:50:42.080Z,63.67
2018-05-16T04:53:07.965Z,61.97
2018-05-16T04:55:33.943Z,65.73
2018-05-16T04:57:59.904Z,63.57
2018-05-16T05:00:25.796Z,60.93
2018-05-16T05:02:51.704Z,61.50
2018-05-16T05:05:17.598Z,64.70
2018-05-16T05:07:43.460Z,67.20
2018-05-16T05:10:09.473Z,63.07
2018-05-16T05:12:35.336Z,62.33
2018-05-16T05:15:01.204Z,69.70
2018-05-16T05:17:27.115Z,65.57
2018-05-16T05:19:52.992Z,67.07
2018-05-16T05:22:18.955Z,63.20
2018-05-16T05:24:44.892Z,65.00
2018-05-16T05:27:10.787Z,64.63
2018-05-16T05:29:36.679Z,63.77
2018-05-16T05:32:02.599Z,66.87
2018-05-16T05:34:28.562Z,63.77
2018-05-16T05:36:54.456Z,60.23
2018-05-16T05:39:20.385Z,61.30
2018-05-16T05:41:46.292Z,63.27
2018-05-16T05:44:12.199Z,67.47
2018-05-16T05:46:38.199Z,62.40
2018-05-16T05:49:04.093Z,64.50
2018-05-16T05:51:30.007Z,64.03
2018-05-16T05:53:55.955Z,74.23
2018-05-16T05:56:21.864Z,69.27
2018-05-16T05:58:47.822Z,70.50
2018-05-16T06:01:13.747Z,61.83
2018-05-16T06:03:44.443Z,61.33
2018-05-16T06:06:10.323Z,60.63
2018-05-16T06:08:36.256Z,60.07
2018-05-16T06:11:02.264Z,58.30
2018-05-16T06:13:28.142Z,63.10
2018-05-16T06:15:54.084Z,62.63
2018-05-16T06:18:19.990Z,59.50
2018-05-16T06:20:45.876Z,63.13
2018-05-16T06:23:11.875Z,56.33
2018-05-16T06:25:37.751Z,57.73
2018-05-16T06:28:03.643Z,50.37
2018-05-16T06:30:29.556Z,52.33
2018-05-16T06:32:57.733Z,48.67
2018-05-16T06:35:23.692Z,47.03
2018-05-16T06:37:49.629Z,46.33
2018-05-16T06:40:15.522Z,45.63
2018-05-16T06:42:41.392Z,50.57
2018-05-16T06:45:07.316Z,47.83
2018-05-16T06:47:33.303Z,44.93
2018-05-16T06:49:59.192Z,43.60
2018-05-16T06:52:25.136Z,44.93
2018-05-16T06:54:51.050Z,42.40
2018-05-16T06:57:16.921Z,42.33
2018-05-16T06:59:42.952Z,39.60
2018-05-16T07:02:08.852Z,38.20
2018-05-16T07:04:34.739Z,38.83
2018-05-16T07:07:00.676Z,40.90
2018-05-16T07:09:26.551Z,42.23
2018-05-16T07:11:52.511Z,36.13
2018-05-16T07:14:18.445Z,37.07
2018-05-16T07:16:44.328Z,38.00
2018-05-16T07:19:10.196Z,37.37
2018-05-16T07:21:36.120Z,35.77
2018-05-16T07:24:02.083Z,39.07
2018-05-16T07:26:27.964Z,36.10
2018-05-16T07:28:53.879Z,35.23
2018-05-16T07:31:19.784Z,35.90
2018-05-16T07:33:45.677Z,36.60
2018-05-16T07:36:11.715Z,36.20
2018-05-16T07:38:37.630Z,34.07
2018-05-16T07:41:03.526Z,30.40
2018-05-16T07:43:29.440Z,30.40
2018-05-16T07:45:55.318Z,31.10
2018-05-16T07:48:21.280Z,34.47
2018-05-16T07:50:47.211Z,31.53
2018-05-16T07:53:13.104Z,31.03
2018-05-16T07:55:38.980Z,31.20
2018-05-16T07:58:12.359Z,34.13
2018-05-16T08:00:39.124Z,33.07
2018-05-16T08:03:05.016Z,33.13
2018-05-16T08:05:31.228Z,30.87
2018-05-16T08:07:57.116Z,31.93
2018-05-16T08:10:23.541Z,26.73
2018-05-16T08:12:49.500Z,29.07
2018-05-16T08:15:15.390Z,28.70
2018-05-16T08:17:42.076Z,28.23
2018-05-16T08:20:08.000Z,28.53
2018-05-16T08:22:33.896Z,29.90
2018-05-16T08:25:00.702Z,26.67
2018-05-16T08:27:26.624Z,22.50
2018-05-16T08:29:52.508Z,22.13
2018-05-16T08:32:18.403Z,19.77
2018-05-16T08:34:44.377Z,20.93
2018-05-16T08:37:10.280Z,19.87
2018-05-16T08:39:36.171Z,20.90
2018-05-16T08:42:02.103Z,19.43
2018-05-16T08:44:27.995Z,20.00
2018-05-16T08:46:53.926Z,18.60
2018-05-16T08:49:19.934Z,20.27
2018-05-16T08:51:46.008Z,20.90
2018-05-16T08:54:13.167Z,19.17
2018-05-16T08:56:39.281Z,16.27
2018-05-16T08:59:05.223Z,14.60
2018-05-16T09:01:31.199Z,14.57
2018-05-16T09:03:57.247Z,14.87
2018-05-16T09:06:23.125Z,14.43
2018-05-16T09:08:49.620Z,13.53
2018-05-16T09:11:16.100Z,13.70
2018-05-16T09:13:42.877Z,13.13
2018-05-16T09:16:09.188Z,13.27
2018-05-16T09:18:35.336Z,12.50
2018-05-16T09:21:01.660Z,12.43
2018-05-16T09:23:27.936Z,11.37
2018-05-16T09:25:54.004Z,10.90
2018-05-16T09:28:20.001Z,11.50
2018-05-16T09:30:45.917Z,11.40
2018-05-16T09:33:12.021Z,10.90
2018-05-16T09:35:38.361Z,10.53
2018-05-16T09:38:04.448Z,10.77
2018-05-16T09:40:30.564Z,10.40
2018-05-16T09:42:56.717Z,11.50
2018-05-16T09:45:24.915Z,11.43
2018-05-16T09:47:52.663Z,10.87
2018-05-16T09:50:20.039Z,10.23
2018-05-16T09:52:46.901Z,10.70
2018-05-16T09:55:13.095Z,10.50
2018-05-16T09:57:40.623Z,11.23
2018-05-16T10:00:06.584Z,10.40
2018-05-16T10:02:32.565Z,11.40
2018-05-16T10:04:58.457Z,10.73
2018-05-16T10:07:24.337Z,9.40
2018-05-16T10:09:50.285Z,10.50
2018-05-16T10:12:16.154Z,9.23
2018-05-16T10:14:42.072Z,9.57
2018-05-16T10:17:08.040Z,9.83
2018-05-16T10:19:33.960Z,9.17
2018-05-16T10:21:59.854Z,10.40
2018-05-16T10:24:26.855Z,9.23
2018-05-16T10:26:52.800Z,8.90
2018-05-16T10:29:18.670Z,8.50
2018-05-16T10:31:44.608Z,7.50
2018-05-16T10:34:10.501Z,8.87
2018-05-16T10:36:36.384Z,8.90
2018-05-16T10:39:02.340Z,7.93
2018-05-16T10:41:28.243Z,7.30
2018-05-16T10:43:54.127Z,8.03
2018-05-16T10:46:20.057Z,7.10
2018-05-16T10:48:45.928Z,6.23
2018-05-16T10:51:11.851Z,8.37
2018-05-16T10:53:38.868Z,8.87
2018-05-16T10:56:04.770Z,7.17
2018-05-16T10:58:30.657Z,7.10
2018-05-16T11:00:56.586Z,6.50
2018-05-16T11:03:22.634Z,6.83
2018-05-16T11:05:48.484Z,7.60
2018-05-16T11:08:14.519Z,6.40
2018-05-16T11:10:40.400Z,7.63
2018-05-16T11:13:06.276Z,6.40
2018-05-16T11:15:32.273Z,7.33
2018-05-16T11:17:58.160Z,7.23
2018-05-16T11:20:24.052Z,7.47
2018-05-16T11:22:49.995Z,8.33
2018-05-16T11:25:15.940Z,5.63
2018-05-16T11:27:42.747Z,8.80
2018-05-16T11:30:08.700Z,5.77
2018-05-16T11:32:34.588Z,7.00
2018-05-16T11:35:00.482Z,7.07
2018-05-16T11:37:26.421Z,7.00
2018-05-16T11:39:52.343Z,6.03
2018-05-16T11:42:18.322Z,6.83
2018-05-16T11:44:44.393Z,6.23
2018-05-16T11:47:10.264Z,6.87
2018-05-16T11:49:36.157Z,5.90
2018-05-16T11:52:02.433Z,6.30
2018-05-16T11:54:28.319Z,8.40
2018-05-16T11:56:54.202Z,5.97
2018-05-16T11:59:20.139Z,6.73
2018-05-16T12:01:46.009Z,5.93
2018-05-16T12:04:11.896Z,6.10
2018-05-16T12:06:37.841Z,7.60
2018-05-16T12:09:05.102Z,6.23
2018-05-16T12:11:30.974Z,5.90
2018-05-16T12:13:56.975Z,7.67
2018-05-16T12:16:22.861Z,5.63
2018-05-16T12:18:48.771Z,8.10
2018-05-16T12:21:15.435Z,6.43
2018-05-16T12:23:41.339Z,6.67
2018-05-16T12:26:07.220Z,7.10
2018-05-16T12:28:33.426Z,7.80
2018-05-16T12:30:59.302Z,6.70
2018-05-16T12:33:25.224Z,6.93
2018-05-16T12:35:51.127Z,7.23
2018-05-16T12:38:17.008Z,6.50
2018-05-16T12:40:42.897Z,6.30
2018-05-16T12:43:15.675Z,6.70
2018-05-16T12:45:41.799Z,7.30
2018-05-16T12:48:07.685Z,7.00
2018-05-16T12:50:33.635Z,6.90
2018-05-16T12:52:59.704Z,7.80
2018-05-16T12:55:25.603Z,6.03
2018-05-16T12:57:51.524Z,6.47
2018-05-16T13:00:17.396Z,6.57
2018-05-16T13:02:43.332Z,6.63
2018-05-16T13:05:09.265Z,5.70
2018-05-16T13:07:35.192Z,8.67
2018-05-16T13:10:01.091Z,6.10
2018-05-16T13:12:27.027Z,5.97
2018-05-16T13:14:52.912Z,6.77
2018-05-16T13:17:18.787Z,6.37
2018-05-16T13:19:44.722Z,5.97
2018-05-16T13:22:10.614Z,5.97
2018-05-16T13:24:36.503Z,5.97
2018-05-16T13:27:03.692Z,6.27
2018-05-16T13:29:31.272Z,6.00
2018-05-16T13:31:57.216Z,7.83
2018-05-16T13:34:23.232Z,9.33
2018-05-16T13:36:49.117Z,9.33
2018-05-16T13:39:15.001Z,6.70
2018-05-16T13:41:41.033Z,6.63
2018-05-16T13:44:06.917Z,6.40
2018-05-16T13:46:32.857Z,5.80
2018-05-16T13:48:58.765Z,6.03
2018-05-16T13:51:25.143Z,6.13
2018-05-16T13:53:51.152Z,5.63
2018-05-16T13:56:17.165Z,5.50
2018-05-16T13:58:43.019Z,5.80
2018-05-16T14:01:08.898Z,5.43
2018-05-16T14:03:37.317Z,6.43
2018-05-16T14:06:03.300Z,5.63
2018-05-16T14:08:29.181Z,5.23
2018-05-16T14:10:55.129Z,6.33
2018-05-16T14:13:21.060Z,5.40
2018-05-16T14:15:46.953Z,5.83
2018-05-16T14:18:12.962Z,4.70
2018-05-16T14:20:38.855Z,6.53
2018-05-16T14:23:04.821Z,5.00
2018-05-16T14:25:30.743Z,5.10
2018-05-16T14:27:56.609Z,4.67
2018-05-16T14:30:22.563Z,5.03
2018-05-16T14:32:48.517Z,4.73
2018-05-16T14:35:14.401Z,4.67
2018-05-16T14:37:40.282Z,4.70
2018-05-16T14:40:06.235Z,5.30
2018-05-16T14:42:32.305Z,5.97
2018-05-16T14:44:58.205Z,5.10
2018-05-16T14:47:24.146Z,5.37
2018-05-16T14:49:50.020Z,7.40
2018-05-16T14:52:15.921Z,5.63
2018-05-16T14:54:41.931Z,5.17
2018-05-16T14:57:07.804Z,6.60
2018-05-16T14:59:33.697Z,5.33
2018-05-16T15:01:59.607Z,5.27
2018-05-16T15:04:25.522Z,4.93
2018-05-16T15:06:51.728Z,5.30
2018-05-16T15:09:17.679Z,6.00
2018-05-16T15:11:43.560Z,5.70
2018-05-16T15:14:09.433Z,6.67
2018-05-16T15:16:35.400Z,6.13
2018-05-16T15:19:01.392Z,8.23
2018-05-16T15:21:27.319Z,5.77
2018-05-16T15:23:53.575Z,6.33
2018-05-16T15:26:19.464Z,6.37
2018-05-16T15:28:45.352Z,6.77
2018-05-16T15:31:11.788Z,5.70
2018-05-16T15:33:37.684Z,5.83
2018-05-16T15:36:03.565Z,5.47
2018-05-16T15:38:29.668Z,4.60
2018-05-16T15:40:55.440Z,5.90
2018-05-16T15:43:21.413Z,5.23
2018-05-16T15:45:47.351Z,4.93
2018-05-16T15:48:13.231Z,5.90
2018-05-16T15:50:39.127Z,6.27
2018-05-16T15:53:05.116Z,5.37
2018-05-16T15:55:31.109Z,5.83
2018-05-16T15:57:56.998Z,6.27
2018-05-16T16:00:23.283Z,5.70
2018-05-16T16:02:49.199Z,5.30
2018-05-16T16:05:15.087Z,5.10
2018-05-16T16:07:41.113Z,5.00
2018-05-16T16:10:07.064Z,5.10
2018-05-16T16:12:32.992Z,5.60
2018-05-16T16:14:58.933Z,4.97
2018-05-16T16:17:24.820Z,5.53
2018-05-16T16:19:50.801Z,5.43
2018-05-16T16:22:16.757Z,5.20
2018-05-16T16:24:42.632Z,4.97
2018-05-16T16:27:08.595Z,5.67
2018-05-16T16:29:34.548Z,5.23
2018-05-16T16:32:00.515Z,5.10
2018-05-16T16:34:26.408Z,4.87
2018-05-16T16:36:52.425Z,5.50
2018-05-16T16:39:18.309Z,6.23
2018-05-16T16:41:44.195Z,5.77
2018-05-16T16:44:10.225Z,5.80
2018-05-16T16:46:36.113Z,7.80
2018-05-16T16:49:02.000Z,6.13
2018-05-16T16:51:27.959Z,6.00
2018-05-16T16:53:54.094Z,6.20
2018-05-16T16:56:20.076Z,6.33
2018-05-16T16:58:46.020Z,5.90
2018-05-16T17:01:11.912Z,6.03
2018-05-16T17:03:37.787Z,5.50
2018-05-16T17:06:03.744Z,5.73
2018-05-16T17:08:29.719Z,5.40
2018-05-16T17:10:55.600Z,6.10
2018-05-16T17:13:21.527Z,5.80
2018-05-16T17:16:00.812Z,5.80
2018-05-16T17:18:26.834Z,6.53
2018-05-16T17:20:52.813Z,7.63
2018-05-16T17:23:18.723Z,5.97
2018-05-16T17:25:44.664Z,7.33
2018-05-16T17:28:10.563Z,6.20
2018-05-16T17:30:36.484Z,5.70
2018-05-16T17:33:02.561Z,6.70
2018-05-16T17:35:28.448Z,6.03
2018-05-16T17:37:54.389Z,6.83
2018-05-16T17:40:20.327Z,6.10
2018-05-16T17:42:46.191Z,6.43
2018-05-16T17:45:12.201Z,6.70
2018-05-16T17:47:38.133Z,7.43
2018-05-16T17:50:04.013Z,6.40
2018-05-16T17:52:29.892Z,6.13
2018-05-16T17:54:55.867Z,7.27
2018-05-16T17:57:21.837Z,6.40
2018-05-16T17:59:47.727Z,6.57
2018-05-16T18:02:13.663Z,6.83
2018-05-16T18:04:39.543Z,6.60
2018-05-16T18:07:05.420Z,7.07
2018-05-16T18:09:31.444Z,8.70
2018-05-16T18:11:57.334Z,6.80
2018-05-16T18:17:33.231Z,7.07
2018-05-16T18:19:59.262Z,18.07
2018-05-16T18:22:25.185Z,8.33
2018-05-16T18:24:51.093Z,8.23
2018-05-16T18:27:17.051Z,7.33
2018-05-16T18:29:43.046Z,8.07
2018-05-16T18:32:08.990Z,8.90
2018-05-16T18:34:34.915Z,8.60
2018-05-16T18:37:00.812Z,9.50
2018-05-16T18:39:26.691Z,9.60
2018-05-16T18:41:52.636Z,9.30
2018-05-16T18:44:18.591Z,9.67
2018-05-16T18:46:44.469Z,10.30
2018-05-16T18:49:10.453Z,9.37
2018-05-16T18:51:36.336Z,9.10
2018-05-16T18:54:02.233Z,9.53
2018-05-16T18:56:28.276Z,9.43
2018-05-16T18:58:54.744Z,9.50
2018-05-16T19:01:20.748Z,10.53
2018-05-16T19:03:46.989Z,10.00
2018-05-16T19:06:12.874Z,10.70
2018-05-16T19:08:38.901Z,10.60
2018-05-16T19:11:04.848Z,10.13
2018-05-16T19:13:30.727Z,10.37
2018-05-16T19:15:56.611Z,9.73
2018-05-16T19:18:22.603Z,10.20
2018-05-16T19:20:48.619Z,11.03
2018-05-16T19:23:14.502Z,12.27
2018-05-16T19:25:40.455Z,12.50
2018-05-16T19:28:06.409Z,11.50
2018-05-16T19:30:32.708Z,12.03
2018-05-16T19:32:58.715Z,11.73
2018-05-16T19:35:24.596Z,11.97
2018-05-16T19:37:50.512Z,11.53
2018-05-16T19:40:16.492Z,11.37
2018-05-16T19:42:42.822Z,12.20
2018-05-16T19:45:08.808Z,12.07
2018-05-16T19:47:35.060Z,12.47
2018-05-16T19:50:00.975Z,12.30
2018-05-16T19:52:26.917Z,12.20
2018-05-16T19:54:53.243Z,14.10
2018-05-16T19:57:19.250Z,12.87
2018-05-16T19:59:45.144Z,14.20
2018-05-16T20:02:11.092Z,14.03
2018-05-16T20:04:37.035Z,13.07
2018-05-16T20:07:03.894Z,13.67
2018-05-16T20:09:29.935Z,13.90
2018-05-16T20:11:55.862Z,12.33
2018-05-16T20:14:21.740Z,13.73
2018-05-16T20:16:47.735Z,14.23
2018-05-16T20:19:14.001Z,15.13
2018-05-16T20:21:40.012Z,15.53
2018-05-16T20:24:05.947Z,14.73
2018-05-16T20:26:33.231Z,16.20
2018-05-16T20:28:59.152Z,15.00
2018-05-16T20:31:25.376Z,15.43
2018-05-16T20:33:51.380Z,15.67
2018-05-16T20:36:17.268Z,16.07
2018-05-16T20:38:44.280Z,13.57
2018-05-16T20:41:10.168Z,15.60
2018-05-16T20:43:38.143Z,15.50
2018-05-16T20:46:04.172Z,15.87
2018-05-16T20:48:30.100Z,15.77
2018-05-16T20:50:55.983Z,15.60
2018-05-16T20:53:21.908Z,16.10
2018-05-16T20:55:47.787Z,17.03
2018-05-16T20:58:13.760Z,15.87
2018-05-16T21:00:39.695Z,15.90
2018-05-16T21:03:05.588Z,16.83
2018-05-16T21:05:31.463Z,16.07
2018-05-16T21:07:57.380Z,16.23
2018-05-16T21:10:23.379Z,16.73
2018-05-16T21:12:49.272Z,18.53
2018-05-16T21:15:15.213Z,18.30
2018-05-16T21:17:41.112Z,17.87
2018-05-16T21:20:06.993Z,17.67
2018-05-16T21:22:33.011Z,17.83
2018-05-16T21:24:58.880Z,18.03
2018-05-16T21:27:24.755Z,17.10
2018-05-16T21:29:57.593Z,18.07
2018-05-16T21:32:23.472Z,21.33
2018-05-16T21:34:49.431Z,20.97
2018-05-16T21:37:15.363Z,19.03
2018-05-16T21:39:41.289Z,19.80
2018-05-16T21:42:07.112Z,19.53
2018-05-16T21:44:33.039Z,19.10
2018-05-16T21:46:58.980Z,18.83
2018-05-16T21:49:24.887Z,18.67
2018-05-16T21:51:50.890Z,19.33
2018-05-16T21:54:17.816Z,19.97
2018-05-16T21:56:43.771Z,19.07
2018-05-16T21:59:09.732Z,19.83
2018-05-16T22:01:35.635Z,18.57
2018-05-16T22:04:01.504Z,17.90
2018-05-16T22:06:27.439Z,18.67
2018-05-16T22:08:53.311Z,19.60
2018-05-16T22:11:19.275Z,20.37
2018-05-16T22:13:45.212Z,19.07
2018-05-16T22:16:11.130Z,18.53
2018-05-16T22:18:37.059Z,17.83
2018-05-16T22:21:02.970Z,18.40
2018-05-16T22:23:28.944Z,19.73
2018-05-16T22:25:54.841Z,20.07
2018-05-16T22:28:20.854Z,17.93
2018-05-16T22:30:52.960Z,18.10
2018-05-16T22:33:24.919Z,18.13
2018-05-16T22:35:57.024Z,19.97
2018-05-16T22:38:29.024Z,18.70
2018-05-16T22:41:01.056Z,16.37
2018-05-16T22:43:26.989Z,18.03
2018-05-16T22:45:56.294Z,17.87
2018-05-16T22:48:22.167Z,18.47
2018-05-16T22:50:48.039Z,17.27
2018-05-16T22:53:13.968Z,17.80
2018-05-16T22:55:39.852Z,18.70
2018-05-16T22:58:05.843Z,18.17
2018-05-16T23:00:31.872Z,18.33
2018-05-16T23:02:57.742Z,19.07
2018-05-16T23:05:23.604Z,18.93
2018-05-16T23:07:49.522Z,19.30
2018-05-16T23:10:15.504Z,17.20
2018-05-16T23:12:41.388Z,19.47
2018-05-16T23:15:07.302Z,19.87
2018-05-16T23:17:33.165Z,19.93
2018-05-16T23:19:59.058Z,18.63
2018-05-16T23:22:25.085Z,19.43
2018-05-16T23:24:50.976Z,19.30
2018-05-16T23:27:16.898Z,19.17
2018-05-16T23:29:42.839Z,19.57
2018-05-16T23:32:08.740Z,22.00
2018-05-16T23:34:34.825Z,20.13
2018-05-16T23:37:00.743Z,22.23
2018-05-16T23:39:26.611Z,21.27
2018-05-16T23:41:52.498Z,22.53
2018-05-16T23:44:18.424Z,22.80
2018-05-16T23:46:44.373Z,24.03
2018-05-16T23:49:10.257Z,22.93
2018-05-16T23:51:36.188Z,23.50
2018-05-16T23:54:02.063Z,24.83
2018-05-16T23:56:27.926Z,23.60
2018-05-16T23:58:53.935Z,28.33
